sensor_id;sensor_type;location;lat;lon;timestamp;P1;durP1;ratioP1;P2;durP2;ratioP2
40827;SDS011;26549;50.918;5.338;2022-07-29T00:01:46;8.20;;;1.20;;
40827;SDS011;26549;50.918;5.338;2022-07-29T00:04:12;5.90;;;1.40;;
40827;SDS011;26549;50.918;5.338;2022-07-29T00:06:38;5.28;;;1.20;;
40827;SDS011;26549;50.918;5.338;2022-07-29T00:09:05;4.70;;;1.10;;
40827;SDS011;26549;50.918;5.338;2022-07-29T00:11:30;4.53;;;1.23;;
40827;SDS011;26549;50.918;5.338;2022-07-29T00:13:56;5.20;;;1.40;;
40827;SDS011;26549;50.918;5.338;2022-07-29T00:16:22;4.63;;;1.50;;
40827;SDS011;26549;50.918;5.338;2022-07-29T00:18:48;3.67;;;1.30;;
40827;SDS011;26549;50.918;5.338;2022-07-29T00:21:14;4.13;;;2.17;;
40827;SDS011;26549;50.918;5.338;2022-07-29T00:23:39;5.03;;;1.30;;
40827;SDS011;26549;50.918;5.338;2022-07-29T00:26:05;3.58;;;1.73;;
40827;SDS011;26549;50.918;5.338;2022-07-29T00:28:31;7.78;;;1.70;;
40827;SDS011;26549;50.918;5.338;2022-07-29T00:30:57;6.15;;;1.30;;
40827;SDS011;26549;50.918;5.338;2022-07-29T00:33:22;5.22;;;1.77;;
40827;SDS011;26549;50.918;5.338;2022-07-29T00:35:48;6.10;;;1.58;;
40827;SDS011;26549;50.918;5.338;2022-07-29T00:38:15;5.82;;;1.30;;
40827;SDS011;26549;50.918;5.338;2022-07-29T00:40:42;12.07;;;2.28;;
40827;SDS011;26549;50.918;5.338;2022-07-29T00:43:08;3.80;;;1.45;;
40827;SDS011;26549;50.918;5.338;2022-07-29T00:45:34;3.55;;;1.20;;
40827;SDS011;26549;50.918;5.338;2022-07-29T00:48:00;3.97;;;1.08;;
40827;SDS011;26549;50.918;5.338;2022-07-29T00:50:28;8.23;;;1.67;;
40827;SDS011;26549;50.918;5.338;2022-07-29T00:52:54;4.57;;;1.77;;
40827;SDS011;26549;50.918;5.338;2022-07-29T00:55:19;1.52;;;0.98;;
40827;SDS011;26549;50.918;5.338;2022-07-29T00:57:46;4.28;;;1.30;;
40827;SDS011;26549;50.918;5.338;2022-07-29T01:00:13;3.72;;;1.38;;
40827;SDS011;26549;50.918;5.338;2022-07-29T01:02:42;4.43;;;1.30;;
40827;SDS011;26549;50.918;5.338;2022-07-29T01:05:08;3.03;;;1.42;;
40827;SDS011;26549;50.918;5.338;2022-07-29T01:07:37;5.32;;;1.40;;
40827;SDS011;26549;50.918;5.338;2022-07-29T01:10:05;4.97;;;1.77;;
40827;SDS011;26549;50.918;5.338;2022-07-29T01:12:33;2.83;;;1.38;;
40827;SDS011;26549;50.918;5.338;2022-07-29T01:15:01;5.75;;;1.60;;
40827;SDS011;26549;50.918;5.338;2022-07-29T01:23:11;3.45;;;1.48;;
40827;SDS011;26549;50.918;5.338;2022-07-29T01:25:54;5.57;;;1.95;;
40827;SDS011;26549;50.918;5.338;2022-07-29T01:28:37;3.28;;;1.45;;
40827;SDS011;26549;50.918;5.338;2022-07-29T01:31:15;5.68;;;1.73;;
40827;SDS011;26549;50.918;5.338;2022-07-29T01:33:45;3.35;;;1.38;;
40827;SDS011;26549;50.918;5.338;2022-07-29T01:37:03;2.88;;;1.38;;
40827;SDS011;26549;50.918;5.338;2022-07-29T01:41:38;3.55;;;1.73;;
40827;SDS011;26549;50.918;5.338;2022-07-29T01:44:15;4.35;;;2.13;;
40827;SDS011;26549;50.918;5.338;2022-07-29T01:46:56;4.68;;;1.73;;
40827;SDS011;26549;50.918;5.338;2022-07-29T01:49:27;6.63;;;1.90;;
40827;SDS011;26549;50.918;5.338;2022-07-29T01:51:57;8.80;;;2.47;;
40827;SDS011;26549;50.918;5.338;2022-07-29T01:54:40;6.63;;;2.20;;
40827;SDS011;26549;50.918;5.338;2022-07-29T01:57:09;6.50;;;1.80;;
40827;SDS011;26549;50.918;5.338;2022-07-29T01:59:38;4.35;;;2.22;;
40827;SDS011;26549;50.918;5.338;2022-07-29T02:02:06;5.43;;;3.08;;
40827;SDS011;26549;50.918;5.338;2022-07-29T02:04:33;4.25;;;1.58;;
40827;SDS011;26549;50.918;5.338;2022-07-29T02:07:02;4.03;;;1.98;;
40827;SDS011;26549;50.918;5.338;2022-07-29T02:09:31;3.90;;;2.15;;
40827;SDS011;26549;50.918;5.338;2022-07-29T02:12:00;4.45;;;1.65;;
40827;SDS011;26549;50.918;5.338;2022-07-29T02:14:31;4.05;;;2.55;;
40827;SDS011;26549;50.918;5.338;2022-07-29T02:17:02;6.93;;;1.92;;
40827;SDS011;26549;50.918;5.338;2022-07-29T02:19:29;2.97;;;1.92;;
40827;SDS011;26549;50.918;5.338;2022-07-29T02:21:57;9.93;;;2.30;;
40827;SDS011;26549;50.918;5.338;2022-07-29T02:24:25;3.58;;;1.70;;
40827;SDS011;26549;50.918;5.338;2022-07-29T02:26:52;2.60;;;1.50;;
40827;SDS011;26549;50.918;5.338;2022-07-29T02:29:22;5.28;;;2.42;;
40827;SDS011;26549;50.918;5.338;2022-07-29T02:31:50;7.63;;;2.45;;
40827;SDS011;26549;50.918;5.338;2022-07-29T02:34:18;5.95;;;1.95;;
40827;SDS011;26549;50.918;5.338;2022-07-29T02:36:45;7.65;;;2.00;;
40827;SDS011;26549;50.918;5.338;2022-07-29T02:39:12;2.92;;;1.70;;
40827;SDS011;26549;50.918;5.338;2022-07-29T02:44:18;5.45;;;2.28;;
40827;SDS011;26549;50.918;5.338;2022-07-29T02:46:53;5.88;;;1.77;;
40827;SDS011;26549;50.918;5.338;2022-07-29T02:52:04;2.85;;;1.67;;
40827;SDS011;26549;50.918;5.338;2022-07-29T02:57:46;4.75;;;2.00;;
40827;SDS011;26549;50.918;5.338;2022-07-29T03:00:16;3.53;;;2.33;;
40827;SDS011;26549;50.918;5.338;2022-07-29T03:02:44;4.00;;;1.88;;
40827;SDS011;26549;50.918;5.338;2022-07-29T03:05:15;4.28;;;1.70;;
40827;SDS011;26549;50.918;5.338;2022-07-29T03:07:50;3.15;;;2.03;;
40827;SDS011;26549;50.918;5.338;2022-07-29T03:10:25;6.28;;;1.75;;
40827;SDS011;26549;50.918;5.338;2022-07-29T03:12:51;5.43;;;1.42;;
40827;SDS011;26549;50.918;5.338;2022-07-29T03:15:19;3.42;;;1.60;;
40827;SDS011;26549;50.918;5.338;2022-07-29T03:17:45;4.47;;;1.67;;
40827;SDS011;26549;50.918;5.338;2022-07-29T03:20:12;2.75;;;2.05;;
40827;SDS011;26549;50.918;5.338;2022-07-29T03:22:42;4.72;;;1.98;;
40827;SDS011;26549;50.918;5.338;2022-07-29T03:25:11;6.85;;;2.13;;
40827;SDS011;26549;50.918;5.338;2022-07-29T03:27:39;2.67;;;1.55;;
40827;SDS011;26549;50.918;5.338;2022-07-29T03:30:05;6.07;;;1.83;;
40827;SDS011;26549;50.918;5.338;2022-07-29T03:32:32;2.80;;;1.80;;
40827;SDS011;26549;50.918;5.338;2022-07-29T03:34:58;3.45;;;2.03;;
40827;SDS011;26549;50.918;5.338;2022-07-29T03:37:23;4.43;;;1.60;;
40827;SDS011;26549;50.918;5.338;2022-07-29T03:39:49;3.65;;;1.63;;
40827;SDS011;26549;50.918;5.338;2022-07-29T03:42:17;5.07;;;1.85;;
40827;SDS011;26549;50.918;5.338;2022-07-29T03:44:47;5.88;;;1.92;;
40827;SDS011;26549;50.918;5.338;2022-07-29T03:47:15;3.08;;;1.80;;
40827;SDS011;26549;50.918;5.338;2022-07-29T03:49:44;4.45;;;1.70;;
40827;SDS011;26549;50.918;5.338;2022-07-29T03:52:13;3.05;;;1.90;;
40827;SDS011;26549;50.918;5.338;2022-07-29T03:54:39;4.55;;;1.75;;
40827;SDS011;26549;50.918;5.338;2022-07-29T03:57:05;2.78;;;1.73;;
40827;SDS011;26549;50.918;5.338;2022-07-29T03:59:32;4.13;;;1.90;;
40827;SDS011;26549;50.918;5.338;2022-07-29T04:01:59;7.03;;;2.60;;
40827;SDS011;26549;50.918;5.338;2022-07-29T04:04:27;2.40;;;1.63;;
40827;SDS011;26549;50.918;5.338;2022-07-29T04:06:52;3.33;;;1.70;;
40827;SDS011;26549;50.918;5.338;2022-07-29T04:09:18;2.92;;;1.75;;
40827;SDS011;26549;50.918;5.338;2022-07-29T04:11:44;14.25;;;1.90;;
40827;SDS011;26549;50.918;5.338;2022-07-29T04:14:10;3.40;;;1.58;;
40827;SDS011;26549;50.918;5.338;2022-07-29T04:16:36;4.97;;;1.60;;
40827;SDS011;26549;50.918;5.338;2022-07-29T04:19:02;7.97;;;1.95;;
40827;SDS011;26549;50.918;5.338;2022-07-29T04:21:27;3.33;;;1.40;;
40827;SDS011;26549;50.918;5.338;2022-07-29T04:23:53;1.88;;;1.38;;
40827;SDS011;26549;50.918;5.338;2022-07-29T04:26:19;4.93;;;1.80;;
40827;SDS011;26549;50.918;5.338;2022-07-29T04:28:45;3.03;;;2.40;;
40827;SDS011;26549;50.918;5.338;2022-07-29T04:31:11;6.20;;;1.73;;
40827;SDS011;26549;50.918;5.338;2022-07-29T04:33:38;7.30;;;1.85;;
40827;SDS011;26549;50.918;5.338;2022-07-29T04:36:04;5.38;;;2.22;;
40827;SDS011;26549;50.918;5.338;2022-07-29T04:38:30;3.60;;;1.75;;
40827;SDS011;26549;50.918;5.338;2022-07-29T04:40:55;8.75;;;2.00;;
40827;SDS011;26549;50.918;5.338;2022-07-29T04:43:21;6.30;;;2.58;;
40827;SDS011;26549;50.918;5.338;2022-07-29T04:45:47;3.30;;;1.88;;
40827;SDS011;26549;50.918;5.338;2022-07-29T04:48:12;5.47;;;2.00;;
40827;SDS011;26549;50.918;5.338;2022-07-29T04:50:38;5.45;;;1.85;;
40827;SDS011;26549;50.918;5.338;2022-07-29T04:53:05;4.60;;;1.67;;
40827;SDS011;26549;50.918;5.338;2022-07-29T04:55:31;2.75;;;1.77;;
40827;SDS011;26549;50.918;5.338;2022-07-29T04:57:57;2.78;;;1.52;;
40827;SDS011;26549;50.918;5.338;2022-07-29T05:00:23;3.30;;;1.52;;
40827;SDS011;26549;50.918;5.338;2022-07-29T05:02:49;3.00;;;1.40;;
40827;SDS011;26549;50.918;5.338;2022-07-29T05:05:15;2.88;;;1.80;;
40827;SDS011;26549;50.918;5.338;2022-07-29T05:07:40;2.65;;;1.80;;
40827;SDS011;26549;50.918;5.338;2022-07-29T05:10:06;4.32;;;1.88;;
40827;SDS011;26549;50.918;5.338;2022-07-29T05:12:33;6.15;;;2.40;;
40827;SDS011;26549;50.918;5.338;2022-07-29T05:14:58;3.30;;;2.38;;
40827;SDS011;26549;50.918;5.338;2022-07-29T05:17:24;6.55;;;2.58;;
40827;SDS011;26549;50.918;5.338;2022-07-29T05:19:50;5.57;;;2.50;;
40827;SDS011;26549;50.918;5.338;2022-07-29T05:22:17;7.97;;;2.80;;
40827;SDS011;26549;50.918;5.338;2022-07-29T05:24:46;2.67;;;2.00;;
40827;SDS011;26549;50.918;5.338;2022-07-29T05:27:12;4.32;;;2.63;;
40827;SDS011;26549;50.918;5.338;2022-07-29T05:29:37;4.07;;;2.00;;
40827;SDS011;26549;50.918;5.338;2022-07-29T05:32:03;9.43;;;2.42;;
40827;SDS011;26549;50.918;5.338;2022-07-29T05:34:30;6.20;;;2.58;;
40827;SDS011;26549;50.918;5.338;2022-07-29T05:36:55;3.97;;;2.35;;
40827;SDS011;26549;50.918;5.338;2022-07-29T05:39:21;5.85;;;2.20;;
40827;SDS011;26549;50.918;5.338;2022-07-29T05:41:48;9.30;;;4.22;;
40827;SDS011;26549;50.918;5.338;2022-07-29T05:44:14;3.45;;;2.47;;
40827;SDS011;26549;50.918;5.338;2022-07-29T05:46:39;4.88;;;2.50;;
40827;SDS011;26549;50.918;5.338;2022-07-29T05:49:05;4.03;;;2.10;;
40827;SDS011;26549;50.918;5.338;2022-07-29T05:51:34;4.20;;;2.50;;
40827;SDS011;26549;50.918;5.338;2022-07-29T05:53:59;6.38;;;2.70;;
40827;SDS011;26549;50.918;5.338;2022-07-29T05:56:25;4.88;;;2.83;;
40827;SDS011;26549;50.918;5.338;2022-07-29T05:58:51;4.88;;;2.95;;
40827;SDS011;26549;50.918;5.338;2022-07-29T06:01:17;11.00;;;2.50;;
40827;SDS011;26549;50.918;5.338;2022-07-29T06:03:43;4.20;;;2.63;;
40827;SDS011;26549;50.918;5.338;2022-07-29T06:06:09;3.53;;;2.75;;
40827;SDS011;26549;50.918;5.338;2022-07-29T06:08:35;6.57;;;2.65;;
40827;SDS011;26549;50.918;5.338;2022-07-29T06:11:01;3.08;;;2.33;;
40827;SDS011;26549;50.918;5.338;2022-07-29T06:13:28;5.03;;;2.40;;
40827;SDS011;26549;50.918;5.338;2022-07-29T06:15:54;3.55;;;2.83;;
40827;SDS011;26549;50.918;5.338;2022-07-29T06:18:20;4.75;;;2.42;;
40827;SDS011;26549;50.918;5.338;2022-07-29T06:20:48;6.53;;;2.92;;
40827;SDS011;26549;50.918;5.338;2022-07-29T06:23:14;3.33;;;2.30;;
40827;SDS011;26549;50.918;5.338;2022-07-29T06:25:40;5.13;;;2.50;;
40827;SDS011;26549;50.918;5.338;2022-07-29T06:28:06;3.13;;;2.45;;
40827;SDS011;26549;50.918;5.338;2022-07-29T06:30:32;5.10;;;2.10;;
40827;SDS011;26549;50.918;5.338;2022-07-29T06:32:57;11.05;;;3.10;;
40827;SDS011;26549;50.918;5.338;2022-07-29T06:35:25;3.53;;;2.38;;
40827;SDS011;26549;50.918;5.338;2022-07-29T06:37:51;4.97;;;2.70;;
40827;SDS011;26549;50.918;5.338;2022-07-29T06:40:17;5.00;;;2.60;;
40827;SDS011;26549;50.918;5.338;2022-07-29T06:43:01;5.75;;;2.95;;
40827;SDS011;26549;50.918;5.338;2022-07-29T06:45:26;4.05;;;2.85;;
40827;SDS011;26549;50.918;5.338;2022-07-29T06:47:52;3.95;;;2.33;;
40827;SDS011;26549;50.918;5.338;2022-07-29T06:50:18;2.95;;;2.30;;
40827;SDS011;26549;50.918;5.338;2022-07-29T06:52:43;8.80;;;3.45;;
40827;SDS011;26549;50.918;5.338;2022-07-29T06:55:09;4.93;;;2.38;;
40827;SDS011;26549;50.918;5.338;2022-07-29T06:57:35;5.68;;;2.83;;
40827;SDS011;26549;50.918;5.338;2022-07-29T07:00:01;7.25;;;2.80;;
40827;SDS011;26549;50.918;5.338;2022-07-29T07:02:29;5.93;;;3.22;;
40827;SDS011;26549;50.918;5.338;2022-07-29T07:04:54;5.22;;;2.75;;
40827;SDS011;26549;50.918;5.338;2022-07-29T07:07:20;6.10;;;2.53;;
40827;SDS011;26549;50.918;5.338;2022-07-29T07:09:46;7.60;;;2.70;;
40827;SDS011;26549;50.918;5.338;2022-07-29T07:12:11;6.03;;;2.58;;
40827;SDS011;26549;50.918;5.338;2022-07-29T07:14:37;4.68;;;2.35;;
40827;SDS011;26549;50.918;5.338;2022-07-29T07:17:04;3.78;;;2.55;;
40827;SDS011;26549;50.918;5.338;2022-07-29T07:19:31;6.03;;;2.83;;
40827;SDS011;26549;50.918;5.338;2022-07-29T07:21:57;3.25;;;2.30;;
40827;SDS011;26549;50.918;5.338;2022-07-29T07:24:23;5.00;;;2.85;;
40827;SDS011;26549;50.918;5.338;2022-07-29T07:26:48;5.47;;;2.63;;
40827;SDS011;26549;50.918;5.338;2022-07-29T07:29:14;3.88;;;2.58;;
40827;SDS011;26549;50.918;5.338;2022-07-29T07:31:40;4.28;;;2.72;;
40827;SDS011;26549;50.918;5.338;2022-07-29T07:34:06;2.67;;;2.38;;
40827;SDS011;26549;50.918;5.338;2022-07-29T07:36:31;6.30;;;3.33;;
40827;SDS011;26549;50.918;5.338;2022-07-29T07:38:57;4.75;;;3.08;;
40827;SDS011;26549;50.918;5.338;2022-07-29T07:41:23;4.63;;;2.85;;
40827;SDS011;26549;50.918;5.338;2022-07-29T07:43:49;3.22;;;2.58;;
40827;SDS011;26549;50.918;5.338;2022-07-29T07:46:14;5.18;;;3.00;;
40827;SDS011;26549;50.918;5.338;2022-07-29T07:48:41;7.35;;;2.88;;
40827;SDS011;26549;50.918;5.338;2022-07-29T07:51:06;5.43;;;3.38;;
40827;SDS011;26549;50.918;5.338;2022-07-29T07:53:33;3.80;;;3.20;;
40827;SDS011;26549;50.918;5.338;2022-07-29T07:55:59;6.20;;;3.50;;
40827;SDS011;26549;50.918;5.338;2022-07-29T07:58:25;4.45;;;3.35;;
40827;SDS011;26549;50.918;5.338;2022-07-29T08:00:51;8.52;;;3.88;;
40827;SDS011;26549;50.918;5.338;2022-07-29T08:03:16;6.78;;;3.67;;
40827;SDS011;26549;50.918;5.338;2022-07-29T08:05:42;7.05;;;3.13;;
40827;SDS011;26549;50.918;5.338;2022-07-29T08:08:08;6.22;;;2.75;;
40827;SDS011;26549;50.918;5.338;2022-07-29T08:10:34;4.72;;;3.10;;
40827;SDS011;26549;50.918;5.338;2022-07-29T08:13:18;3.55;;;3.10;;
40827;SDS011;26549;50.918;5.338;2022-07-29T08:15:45;7.35;;;2.70;;
40827;SDS011;26549;50.918;5.338;2022-07-29T08:18:12;7.65;;;3.10;;
40827;SDS011;26549;50.918;5.338;2022-07-29T08:20:38;5.60;;;3.38;;
40827;SDS011;26549;50.918;5.338;2022-07-29T08:23:05;4.13;;;2.35;;
40827;SDS011;26549;50.918;5.338;2022-07-29T08:25:33;6.03;;;2.30;;
40827;SDS011;26549;50.918;5.338;2022-07-29T08:28:01;5.60;;;2.72;;
40827;SDS011;26549;50.918;5.338;2022-07-29T08:30:26;8.63;;;3.53;;
40827;SDS011;26549;50.918;5.338;2022-07-29T08:32:53;2.92;;;2.15;;
40827;SDS011;26549;50.918;5.338;2022-07-29T08:35:20;4.72;;;2.40;;
40827;SDS011;26549;50.918;5.338;2022-07-29T08:37:47;5.57;;;2.60;;
40827;SDS011;26549;50.918;5.338;2022-07-29T08:40:13;7.35;;;2.35;;
40827;SDS011;26549;50.918;5.338;2022-07-29T08:42:39;4.20;;;2.05;;
40827;SDS011;26549;50.918;5.338;2022-07-29T08:45:05;4.40;;;2.13;;
40827;SDS011;26549;50.918;5.338;2022-07-29T08:47:31;4.65;;;2.10;;
40827;SDS011;26549;50.918;5.338;2022-07-29T08:50:01;6.40;;;2.70;;
40827;SDS011;26549;50.918;5.338;2022-07-29T08:52:27;4.85;;;2.83;;
40827;SDS011;26549;50.918;5.338;2022-07-29T08:54:57;9.77;;;2.42;;
40827;SDS011;26549;50.918;5.338;2022-07-29T08:57:23;6.10;;;2.38;;
40827;SDS011;26549;50.918;5.338;2022-07-29T08:59:50;4.68;;;2.50;;
40827;SDS011;26549;50.918;5.338;2022-07-29T09:02:19;4.68;;;2.42;;
40827;SDS011;26549;50.918;5.338;2022-07-29T09:04:46;9.50;;;3.00;;
40827;SDS011;26549;50.918;5.338;2022-07-29T09:07:16;5.10;;;3.35;;
40827;SDS011;26549;50.918;5.338;2022-07-29T09:09:44;4.18;;;2.60;;
40827;SDS011;26549;50.918;5.338;2022-07-29T09:12:10;4.57;;;3.25;;
40827;SDS011;26549;50.918;5.338;2022-07-29T09:14:40;5.22;;;2.78;;
40827;SDS011;26549;50.918;5.338;2022-07-29T09:17:06;5.55;;;2.10;;
40827;SDS011;26549;50.918;5.338;2022-07-29T09:19:33;5.45;;;2.22;;
40827;SDS011;26549;50.918;5.338;2022-07-29T09:22:02;7.63;;;2.30;;
40827;SDS011;26549;50.918;5.338;2022-07-29T09:27:25;6.40;;;2.22;;
40827;SDS011;26549;50.918;5.338;2022-07-29T09:29:57;2.95;;;2.00;;
40827;SDS011;26549;50.918;5.338;2022-07-29T09:32:24;4.97;;;3.20;;
40827;SDS011;26549;50.918;5.338;2022-07-29T09:34:51;6.50;;;2.45;;
40827;SDS011;26549;50.918;5.338;2022-07-29T09:37:46;6.57;;;2.75;;
40827;SDS011;26549;50.918;5.338;2022-07-29T09:40:14;3.85;;;2.47;;
40827;SDS011;26549;50.918;5.338;2022-07-29T09:42:42;4.07;;;2.90;;
40827;SDS011;26549;50.918;5.338;2022-07-29T09:45:08;4.38;;;2.90;;
40827;SDS011;26549;50.918;5.338;2022-07-29T09:47:40;8.07;;;3.05;;
40827;SDS011;26549;50.918;5.338;2022-07-29T09:50:07;3.92;;;2.30;;
40827;SDS011;26549;50.918;5.338;2022-07-29T09:52:41;3.63;;;2.60;;
40827;SDS011;26549;50.918;5.338;2022-07-29T09:55:17;4.97;;;2.95;;
40827;SDS011;26549;50.918;5.338;2022-07-29T09:57:43;5.57;;;2.67;;
40827;SDS011;26549;50.918;5.338;2022-07-29T10:00:16;8.32;;;2.80;;
40827;SDS011;26549;50.918;5.338;2022-07-29T10:02:44;5.72;;;2.47;;
40827;SDS011;26549;50.918;5.338;2022-07-29T10:05:24;5.97;;;2.65;;
40827;SDS011;26549;50.918;5.338;2022-07-29T10:07:56;5.65;;;2.20;;
40827;SDS011;26549;50.918;5.338;2022-07-29T10:13:00;3.63;;;2.03;;
40827;SDS011;26549;50.918;5.338;2022-07-29T10:15:28;5.95;;;2.75;;
40827;SDS011;26549;50.918;5.338;2022-07-29T10:17:57;2.95;;;1.73;;
40827;SDS011;26549;50.918;5.338;2022-07-29T10:20:24;5.25;;;2.25;;
40827;SDS011;26549;50.918;5.338;2022-07-29T10:22:51;3.40;;;2.00;;
40827;SDS011;26549;50.918;5.338;2022-07-29T10:25:18;3.75;;;1.83;;
40827;SDS011;26549;50.918;5.338;2022-07-29T10:27:45;3.92;;;2.28;;
40827;SDS011;26549;50.918;5.338;2022-07-29T10:30:13;5.90;;;1.60;;
40827;SDS011;26549;50.918;5.338;2022-07-29T10:46:37;3.92;;;1.73;;
40827;SDS011;26549;50.918;5.338;2022-07-29T10:49:08;2.88;;;1.42;;
40827;SDS011;26549;50.918;5.338;2022-07-29T10:52:03;5.13;;;2.00;;
40827;SDS011;26549;50.918;5.338;2022-07-29T10:57:17;4.93;;;1.67;;
40827;SDS011;26549;50.918;5.338;2022-07-29T10:59:47;4.03;;;1.50;;
40827;SDS011;26549;50.918;5.338;2022-07-29T11:07:31;2.50;;;1.50;;
40827;SDS011;26549;50.918;5.338;2022-07-29T11:15:16;4.78;;;1.80;;
40827;SDS011;26549;50.918;5.338;2022-07-29T11:20:32;3.88;;;1.38;;
40827;SDS011;26549;50.918;5.338;2022-07-29T11:23:24;2.25;;;1.02;;
40827;SDS011;26549;50.918;5.338;2022-07-29T11:31:42;3.50;;;1.52;;
40827;SDS011;26549;50.918;5.338;2022-07-29T11:34:17;2.45;;;1.20;;
40827;SDS011;26549;50.918;5.338;2022-07-29T11:39:37;3.75;;;1.60;;
40827;SDS011;26549;50.918;5.338;2022-07-29T11:47:41;2.53;;;1.30;;
40827;SDS011;26549;50.918;5.338;2022-07-29T11:50:14;3.42;;;1.30;;
40827;SDS011;26549;50.918;5.338;2022-07-29T11:52:52;3.65;;;1.40;;
40827;SDS011;26549;50.918;5.338;2022-07-29T11:55:20;5.07;;;1.60;;
40827;SDS011;26549;50.918;5.338;2022-07-29T12:00:24;2.30;;;1.20;;
40827;SDS011;26549;50.918;5.338;2022-07-29T12:02:51;3.78;;;1.23;;
40827;SDS011;26549;50.918;5.338;2022-07-29T12:05:17;2.50;;;1.40;;
40827;SDS011;26549;50.918;5.338;2022-07-29T12:07:44;4.32;;;1.23;;
40827;SDS011;26549;50.918;5.338;2022-07-29T12:10:10;3.55;;;1.75;;
40827;SDS011;26549;50.918;5.338;2022-07-29T12:12:36;4.30;;;1.27;;
40827;SDS011;26549;50.918;5.338;2022-07-29T12:15:16;4.50;;;1.50;;
40827;SDS011;26549;50.918;5.338;2022-07-29T12:17:45;3.10;;;1.60;;
40827;SDS011;26549;50.918;5.338;2022-07-29T12:20:12;2.45;;;1.70;;
40827;SDS011;26549;50.918;5.338;2022-07-29T12:22:41;3.20;;;1.42;;
40827;SDS011;26549;50.918;5.338;2022-07-29T12:25:12;2.83;;;1.33;;
40827;SDS011;26549;50.918;5.338;2022-07-29T12:27:43;2.88;;;1.65;;
40827;SDS011;26549;50.918;5.338;2022-07-29T12:30:10;9.77;;;1.58;;
40827;SDS011;26549;50.918;5.338;2022-07-29T12:32:46;2.85;;;1.63;;
40827;SDS011;26549;50.918;5.338;2022-07-29T12:35:17;4.57;;;2.28;;
40827;SDS011;26549;50.918;5.338;2022-07-29T12:37:44;3.90;;;1.35;;
40827;SDS011;26549;50.918;5.338;2022-07-29T12:40:16;5.32;;;1.45;;
40827;SDS011;26549;50.918;5.338;2022-07-29T12:45:38;2.50;;;1.27;;
40827;SDS011;26549;50.918;5.338;2022-07-29T12:48:08;4.43;;;1.65;;
40827;SDS011;26549;50.918;5.338;2022-07-29T12:50:50;5.72;;;1.20;;
40827;SDS011;26549;50.918;5.338;2022-07-29T12:53:27;2.40;;;1.27;;
40827;SDS011;26549;50.918;5.338;2022-07-29T12:55:53;2.67;;;1.38;;
40827;SDS011;26549;50.918;5.338;2022-07-29T12:58:27;2.67;;;1.65;;
40827;SDS011;26549;50.918;5.338;2022-07-29T13:03:27;2.42;;;1.17;;
40827;SDS011;26549;50.918;5.338;2022-07-29T13:05:53;3.45;;;1.60;;
40827;SDS011;26549;50.918;5.338;2022-07-29T13:08:18;3.17;;;1.25;;
40827;SDS011;26549;50.918;5.338;2022-07-29T13:10:45;2.22;;;1.70;;
40827;SDS011;26549;50.918;5.338;2022-07-29T13:13:12;1.13;;;0.77;;
40827;SDS011;26549;50.918;5.338;2022-07-29T13:15:41;1.50;;;1.02;;
40827;SDS011;26549;50.918;5.338;2022-07-29T13:20:54;1.95;;;1.23;;
40827;SDS011;26549;50.918;5.338;2022-07-29T13:23:20;5.80;;;1.42;;
40827;SDS011;26549;50.918;5.338;2022-07-29T13:25:47;3.97;;;0.98;;
40827;SDS011;26549;50.918;5.338;2022-07-29T13:28:13;3.30;;;1.17;;
40827;SDS011;26549;50.918;5.338;2022-07-29T13:30:39;1.92;;;1.27;;
40827;SDS011;26549;50.918;5.338;2022-07-29T13:33:06;1.48;;;1.10;;
40827;SDS011;26549;50.918;5.338;2022-07-29T13:35:31;4.35;;;1.42;;
40827;SDS011;26549;50.918;5.338;2022-07-29T13:37:57;3.35;;;1.42;;
40827;SDS011;26549;50.918;5.338;2022-07-29T13:40:23;2.25;;;1.27;;
40827;SDS011;26549;50.918;5.338;2022-07-29T13:42:49;3.13;;;1.10;;
40827;SDS011;26549;50.918;5.338;2022-07-29T13:45:15;2.70;;;1.10;;
40827;SDS011;26549;50.918;5.338;2022-07-29T13:47:40;2.75;;;1.60;;
40827;SDS011;26549;50.918;5.338;2022-07-29T13:50:07;2.28;;;1.48;;
40827;SDS011;26549;50.918;5.338;2022-07-29T13:52:34;4.18;;;1.30;;
40827;SDS011;26549;50.918;5.338;2022-07-29T13:55:01;3.30;;;1.10;;
40827;SDS011;26549;50.918;5.338;2022-07-29T13:57:27;4.35;;;1.45;;
40827;SDS011;26549;50.918;5.338;2022-07-29T13:59:53;1.80;;;1.00;;
40827;SDS011;26549;50.918;5.338;2022-07-29T14:02:20;2.97;;;1.00;;
40827;SDS011;26549;50.918;5.338;2022-07-29T14:04:46;2.25;;;1.08;;
40827;SDS011;26549;50.918;5.338;2022-07-29T14:07:11;4.97;;;1.20;;
40827;SDS011;26549;50.918;5.338;2022-07-29T14:09:40;2.92;;;1.23;;
40827;SDS011;26549;50.918;5.338;2022-07-29T14:12:05;2.60;;;0.80;;
40827;SDS011;26549;50.918;5.338;2022-07-29T14:14:31;1.95;;;1.10;;
40827;SDS011;26549;50.918;5.338;2022-07-29T14:16:57;0.73;;;0.73;;
40827;SDS011;26549;50.918;5.338;2022-07-29T14:19:23;2.28;;;1.00;;
40827;SDS011;26549;50.918;5.338;2022-07-29T14:21:49;2.13;;;1.23;;
40827;SDS011;26549;50.918;5.338;2022-07-29T14:24:15;3.95;;;1.00;;
40827;SDS011;26549;50.918;5.338;2022-07-29T14:26:40;3.72;;;0.90;;
40827;SDS011;26549;50.918;5.338;2022-07-29T14:29:06;1.27;;;0.80;;
40827;SDS011;26549;50.918;5.338;2022-07-29T14:31:32;1.00;;;0.80;;
40827;SDS011;26549;50.918;5.338;2022-07-29T14:33:57;6.15;;;1.27;;
40827;SDS011;26549;50.918;5.338;2022-07-29T14:36:23;1.77;;;1.10;;
40827;SDS011;26549;50.918;5.338;2022-07-29T14:38:49;1.38;;;0.80;;
40827;SDS011;26549;50.918;5.338;2022-07-29T14:41:14;1.65;;;1.10;;
40827;SDS011;26549;50.918;5.338;2022-07-29T14:43:40;2.72;;;1.45;;
40827;SDS011;26549;50.918;5.338;2022-07-29T14:46:06;5.95;;;1.77;;
40827;SDS011;26549;50.918;5.338;2022-07-29T14:48:32;3.13;;;1.48;;
40827;SDS011;26549;50.918;5.338;2022-07-29T14:50:58;2.17;;;0.68;;
40827;SDS011;26549;50.918;5.338;2022-07-29T14:53:24;4.20;;;1.00;;
40827;SDS011;26549;50.918;5.338;2022-07-29T14:55:50;5.88;;;1.42;;
40827;SDS011;26549;50.918;5.338;2022-07-29T14:58:15;3.90;;;1.75;;
40827;SDS011;26549;50.918;5.338;2022-07-29T15:00:41;3.33;;;1.23;;
40827;SDS011;26549;50.918;5.338;2022-07-29T15:03:07;4.03;;;1.10;;
40827;SDS011;26549;50.918;5.338;2022-07-29T15:05:36;4.70;;;1.45;;
40827;SDS011;26549;50.918;5.338;2022-07-29T15:08:01;4.07;;;1.08;;
40827;SDS011;26549;50.918;5.338;2022-07-29T15:10:27;1.85;;;1.20;;
40827;SDS011;26549;50.918;5.338;2022-07-29T15:12:54;5.20;;;0.98;;
40827;SDS011;26549;50.918;5.338;2022-07-29T15:15:20;5.63;;;1.23;;
40827;SDS011;26549;50.918;5.338;2022-07-29T15:17:46;2.55;;;0.80;;
40827;SDS011;26549;50.918;5.338;2022-07-29T15:20:12;4.00;;;1.10;;
40827;SDS011;26549;50.918;5.338;2022-07-29T15:22:38;3.90;;;1.20;;
40827;SDS011;26549;50.918;5.338;2022-07-29T15:25:06;1.90;;;1.00;;
40827;SDS011;26549;50.918;5.338;2022-07-29T15:27:32;1.88;;;0.93;;
40827;SDS011;26549;50.918;5.338;2022-07-29T15:29:57;1.90;;;0.90;;
40827;SDS011;26549;50.918;5.338;2022-07-29T15:32:23;2.83;;;0.93;;
40827;SDS011;26549;50.918;5.338;2022-07-29T15:34:49;2.72;;;1.38;;
40827;SDS011;26549;50.918;5.338;2022-07-29T15:37:14;3.50;;;1.10;;
40827;SDS011;26549;50.918;5.338;2022-07-29T15:39:40;2.05;;;0.80;;
40827;SDS011;26549;50.918;5.338;2022-07-29T15:42:06;2.95;;;1.08;;
40827;SDS011;26549;50.918;5.338;2022-07-29T15:44:31;3.22;;;1.05;;
40827;SDS011;26549;50.918;5.338;2022-07-29T15:46:57;9.30;;;1.20;;
40827;SDS011;26549;50.918;5.338;2022-07-29T15:49:36;3.30;;;0.80;;
40827;SDS011;26549;50.918;5.338;2022-07-29T15:52:04;3.63;;;1.45;;
40827;SDS011;26549;50.918;5.338;2022-07-29T15:54:31;3.28;;;1.00;;
40827;SDS011;26549;50.918;5.338;2022-07-29T15:56:58;4.97;;;1.20;;
40827;SDS011;26549;50.918;5.338;2022-07-29T15:59:24;3.50;;;1.35;;
40827;SDS011;26549;50.918;5.338;2022-07-29T16:01:50;3.15;;;1.45;;
40827;SDS011;26549;50.918;5.338;2022-07-29T16:04:16;3.25;;;0.90;;
40827;SDS011;26549;50.918;5.338;2022-07-29T16:06:42;3.10;;;1.15;;
40827;SDS011;26549;50.918;5.338;2022-07-29T16:09:08;2.15;;;0.95;;